新千歳空港の過去48時間の天気

新千歳空港 (Sapporo/New Chitose)

現在時刻: 10/14 18:22 JST (10/14 09:22 UTC) 以下の時間は現地時間です。

過去48時間のMETAR気象情報
時間 風向 風速(m/s) 視程 気温(℃) 湿度(%) 気圧(hPa) 天気現象
14 18:00 西南西 3 10km以上 11 82 1018
14 17:30 3 10km以上 12 77 1018
14 17:00 南西 2 10km以上 12 77 1018
14 16:30 3 10km以上 13 67 1018
14 16:00 4 10km以上 13 67 1018
14 15:30 4 10km以上 13 67 1019
14 15:00 南南東 6 10km以上 14 63 1019
14 14:30 6 10km以上 15 59 1019
14 14:00 6 10km以上 14 63 1019
14 13:30 南南西 6 10km以上 14 63 1019
14 13:00 7 10km以上 14 59 1020
14 12:30 6 10km以上 15 63 1020
14 12:00 7 10km以上 16 51 1020
14 11:30 4 10km以上 13 72 1021
14 11:00 5 10km以上 13 72 1022
14 10:30 4 10km以上 13 72 1022
14 10:00 南南東 3 10km以上 12 67 1022
14 09:30 不定 1 10km以上 11 67 1023
14 09:00 不定 1 10km以上 9 71 1023
14 08:30 不定 1 10km以上 7 81 1024
14 08:00 不定 1 10km以上 6 87 1024
14 07:30 不定 1 10km以上 5 87 1024
14 07:00 静穏 0 10km以上 3 100 1024 部分霧
14 06:30 南南西 1 10km以上 1 100 1024 部分霧
14 06:00 南南東 1 10km以上 0 100 1024 部分霧
14 05:30 北西 1 10km以上 1 100 1024
14 05:00 1 10km以上 2 100 1024
14 04:30 北西 1 10km以上 2 93 1024
14 04:00 北北東 2 10km以上 1 100 1024
14 03:30 東北東 2 10km以上 1 100 1024
14 03:00 不定 1 10km以上 2 100 1024
14 02:30 2 10km以上 2 100 1024
14 02:00 北西 1 10km以上 3 93 1023
14 01:30 不定 1 10km以上 3 93 1023
14 01:00 3 10km以上 2 100 1023
14 00:30 2 10km以上 3 93 1023
14 00:00 北北西 2 10km以上 4 87 1023
13 23:30 西 2 10km以上 4 93 1023
13 23:00 南西 2 10km以上 3 100 1023
13 22:30 北西 2 10km以上 5 87 1023
13 22:00 2 10km以上 6 81 1022
13 21:30 2 10km以上 5 87 1022
13 21:00 北北西 3 10km以上 6 81 1022
13 20:30 北北西 3 10km以上 7 76 1021
13 20:00 北北西 3 10km以上 6 81 1021
13 19:30 3 10km以上 7 76 1021
13 19:00 4 10km以上 8 76 1021
13 18:30 北北西 5 10km以上 10 62 1020
13 18:00 北北西 6 10km以上 10 62 1019
13 17:30 北北西 8 10km以上 11 58 1018
13 17:00 北北西 10 10km以上 11 54 1017
13 16:30 北北西 11 10km以上 12 54 1017
13 16:08 北北西 9 10km以上 12 54 1016
13 15:30 北北西 8 10km以上 13 54 1016
13 15:00 北北西 7 10km以上 13 51 1015
13 14:30 8 10km以上 13 54 1014
13 14:00 9 10km以上 14 51 1013
13 13:30 9 10km以上 14 51 1012
13 13:19 9 10km以上 14 51 1012
13 13:00 10 10km以上 14 51 1012
13 12:30 11 10km以上 14 51 1011
13 12:00 10 10km以上 14 55 1011
13 11:36 12 10km以上 14 55 1011
13 11:30 12 10km以上 13 58 1011
13 11:00 11 10km以上 13 58 1010
13 10:30 13 10km以上 12 62 1009
13 10:00 13 10km以上 12 62 1008
13 09:30 14 10km以上 11 67 1008
13 09:00 14 10km以上 10 71 1008
13 08:30 14 10km以上 10 71 1008
13 08:00 北北西 14 10km以上 10 71 1008
13 07:30 13 10km以上 9 76 1007
13 07:00 14 10km以上 9 76 1007
13 06:36 14 10km以上 9 76 1007
13 06:30 15 10km以上 9 76 1007
13 06:00 14 10km以上 9 76 1007
13 05:30 14 10km以上 8 81 1007 弱いしゅう雨
13 05:04 12 10km以上 8 81 1007 弱いしゅう雨
13 05:00 13 10km以上 8 81 1007 弱いしゅう雨
13 04:30 北北西 12 10km以上 8 81 1008 弱いしゅう雨
RJCC 140900Z 25005KT 190V280 9999 FEW020 SCT050 BKN150 11/08 Q1018 RMK 1CU020 3CU050 6AC150 A3007
RJCC 140830Z VRB05G15KT 9999 FEW020 BKN050 BKN150 12/08 Q1018 RMK 1CU020 5CU050 6AC150 A3007
RJCC 140800Z 23003KT 170V260 9999 FEW020 SCT050 BKN150 12/08 Q1018 RMK 1CU020 3CU050 6AC150 A3007
RJCC 140730Z 19005KT 9999 FEW020 SCT050 BKN150 13/07 Q1018 RMK 1CU020 3CU050 6AC150 A3007
RJCC 140700Z 18007KT 9999 FEW020 SCT050 BKN/// 13/07 Q1018 RMK 1CU020 3CU050 A3008
RJCC 140630Z 19008KT 9999 FEW020 SCT040 BKN/// 13/07 Q1019 RMK 1CU020 3CU040 A3009
RJCC 140600Z 16011KT 9999 FEW020 BKN040 BKN/// 14/07 Q1019 RMK 1CU020 5CU040 A3010
RJCC 140530Z 18012KT 9999 FEW020 SCT160 BKN/// 15/07 Q1019
RJCC 140500Z 19011KT 9999 FEW025 BKN/// 14/07 Q1019 RMK 1CU025 A3010
RJCC 140430Z 20011KT 9999 FEW030 SCT160 BKN/// 14/07 Q1019
RJCC 140400Z 19013KT 9999 FEW030 SCT160 BKN/// 14/06 Q1020
RJCC 140330Z 17012KT 9999 FEW025 BKN160 15/08 Q1020 RMK 1CU025 5AC160 A3013
RJCC 140300Z 17013KT 9999 FEW025 SCT035 16/06 Q1020 RMK 1CU025 4CU035 A3014
RJCC 140230Z 17008KT 140V200 9999 FEW020 SCT030 13/08 Q1021 RMK 1CU020 4CU030 A3016
RJCC 140200Z 17009KT 140V210 9999 FEW020 SCT030 13/08 Q1022 RMK 1CU020 3CU030 A3018
RJCC 140130Z 18007KT 130V210 9999 FEW020 SCT030 BKN/// 13/08 Q1022 RMK 1CU020 3CU030 A3019
RJCC 140100Z 15005KT 090V200 9999 FEW020 SCT170 BKN/// 12/06 Q1022 RMK 2CU020 4AC170 A3020
RJCC 140030Z VRB02KT 9999 FEW030 BKN170 BKN/// 11/05 Q1023
RJCC 140000Z VRB01KT 9999 FEW030 BKN180 BKN/// 09/04 Q1023 RMK 1CU030 6AC180 A3023
RJCC 132330Z VRB01KT 9999 FEW030 BKN180 BKN/// 07/04 Q1024 RMK 1CU030 6AC180 A3024
RJCC 132300Z VRB01KT 9999 FEW030 BKN180 BKN/// 06/04 Q1024 RMK 1CU030 5AC180 A3025
RJCC 132230Z VRB01KT 9999 FEW020 SCT160 BKN180 05/03 Q1024 RMK 1CU020 3AC160 5AC180 A3025
RJCC 132200Z 00000KT 9999 PRFG FEW020 SCT160 BKN180 03/03 Q1024 RMK 1CU020 3AC160 5AC180 A3026 FG E
RJCC 132130Z 21001KT 9999 PRFG FEW020 BKN180 01/01 Q1024 RMK 1CU020 5AC180 A3025 FG E
RJCC 132100Z 16002KT 9999 PRFG FEW020 SCT180 00/00 Q1024 RMK 1CU020 3AC180 A3025 FG E
RJCC 132030Z 31002KT 9999 FEW020 SCT180 01/01 Q1024 RMK 1CU020 3AC180 A3025
RJCC 132000Z 01001KT 9999 FEW020 SCT180 02/02 Q1024 RMK 1CU020 3AC180 A3025
RJCC 131930Z 32001KT 9999 FEW020 SCT180 02/01 Q1024 RMK 1CU020 3AC180 A3025
RJCC 131900Z 02003KT 9999 FEW020 SCT/// 01/01 Q1024 RMK 1CU020 A3025
RJCC 131830Z 06003KT 9999 FEW020 SCT/// 01/01 Q1024 RMK 1CU020 A3024
RJCC 131800Z VRB02KT 9999 FEW020 02/02 Q1024 RMK 1CU020 A3025
RJCC 131730Z 19003KT 9999 FEW020 02/02 Q1024 RMK 1CU020 A3025
RJCC 131700Z 32002KT 9999 FEW020 03/02 Q1023 RMK 1CU020 A3023
RJCC 131630Z VRB01KT 9999 FEW020 03/02 Q1023 RMK 1CU020 A3023
RJCC 131600Z 36006KT 9999 FEW020 02/02 Q1023 RMK 1CU020 A3023
RJCC 131530Z 36003KT 9999 FEW020 03/02 Q1023 RMK 1CU020 A3023
RJCC 131500Z 33003KT 9999 FEW020 04/02 Q1023 RMK 1CU020 A3023
RJCC 131430Z 26004KT 230V290 9999 FEW020 04/03 Q1023 RMK 1CU020 A3023
RJCC 131400Z 23003KT 200V270 9999 FEW020 03/03 Q1023 RMK 1CU020 A3022
RJCC 131330Z 31004KT 9999 FEW020 05/03 Q1023 RMK 1CU020 A3022
RJCC 131300Z 35003KT 9999 FEW020 06/03 Q1022 RMK 1CU020 A3020
RJCC 131230Z 36003KT 340V040 9999 FEW020 05/03 Q1022 RMK 1CU020 A3020
RJCC 131200Z 34005KT 9999 FEW020 06/03 Q1022 RMK 1CU020 A3018
RJCC 131130Z 34005KT 9999 FEW020 07/03 Q1021 RMK 1CU020 A3017
RJCC 131100Z 34006KT 9999 FEW020 06/03 Q1021 RMK 1CU020 A3016
RJCC 131030Z 36005KT 9999 FEW020 07/03 Q1021 RMK 1CU020 A3016
RJCC 131000Z 36007KT 9999 FEW020 08/04 Q1021 RMK 1CU020 A3015
RJCC 130930Z 34009KT 9999 FEW020 10/03 Q1020 RMK 1CU020 A3013
RJCC 130900Z 34011KT 9999 FEW020 10/03 Q1019 RMK 1CU020 A3011
RJCC 130830Z 33016KT 9999 FEW020 11/03 Q1018 RMK 1CU020 A3008 P/RR
RJCC 130800Z 33019KT 9999 FEW020 11/02 Q1017 RMK 1CU020 A3005
RJCC 130730Z 33022G32KT 9999 FEW030 SCT040 12/03 Q1017 RMK 1CU030 3CU040 A3003
RJCC 130708Z 33018G28KT 9999 FEW030 BKN040 12/03 Q1016 RMK 1CU030 5CU040 A3002
RJCC 130630Z 33015G25KT 9999 FEW030 BKN040 13/04 Q1016 RMK 1CU030 5CU040 A3000
RJCC 130600Z 34014KT 9999 FEW030 SCT040 13/03 Q1015 RMK 1CU030 4CU040 A2999 P/RR
RJCC 130530Z 35015KT 9999 FEW030 SCT040 13/04 Q1014 RMK 1CU030 3CU040 A2995
RJCC 130500Z 36018KT 9999 FEW040 14/04 Q1013 RMK 2CU040 A2992
RJCC 130430Z 36018KT 9999 FEW030 SCT040 14/04 Q1012 RMK 1CU030 3CU040 A2991
RJCC 130419Z 36018G28KT 9999 FEW030 14/04 Q1012 RMK 1CU030 A2990
RJCC 130400Z 36019KT 9999 FEW030 14/04 Q1012 RMK 1CU030 A2989
RJCC 130330Z 36022G34KT 9999 FEW030 14/04 Q1011 RMK 1CU030 A2988
RJCC 130300Z 35020G31KT 9999 FEW030 14/05 Q1011 RMK 1CU030 A2987
RJCC 130236Z 35023G33KT 9999 FEW030 14/05 Q1011 RMK 1CU030 A2986
RJCC 130230Z 35024KT 9999 FEW030 13/05 Q1011 RMK 1CU030 A2985
RJCC 130200Z 35022G33KT 9999 FEW030 13/05 Q1010 RMK 1CU030 A2983
RJCC 130130Z 35026G36KT 9999 FEW030 12/05 Q1009 RMK 1CU030 A2981
RJCC 130100Z 35026G40KT 9999 FEW020 SCT/// 12/05 Q1008 RMK 1CU020 A2979
RJCC 130030Z 35028G40KT 9999 FEW018 BKN/// 11/05 Q1008
RJCC 130000Z 35027G38KT 9999 FEW018 BKN/// 10/05 Q1008
RJCC 122330Z 35027G38KT 9999 FEW020 BKN/// 10/05 Q1008 RMK 1CU020 A2977
RJCC 122300Z 34028G38KT 9999 FEW015 SCT170 BKN/// 10/05 Q1008 RMK 1ST015 3AC170 A2977
RJCC 122230Z 35026G38KT 9999 FEW025 BKN160 09/05 Q1007 RMK 1CU025 7AC160 A2976
RJCC 122200Z 35027G37KT 9999 FEW025 BKN140 09/05 Q1007 RMK 1CU025 7AC140 A2975
RJCC 122136Z 35028G38KT 9999 FEW025 BKN140 09/05 Q1007 RMK 1CU025 7AC140 A2975
RJCC 122130Z 35029KT 9999 FEW025 BKN140 09/05 Q1007 RMK 1CU025 7AC140 A2975
RJCC 122100Z 35028G38KT 9999 FEW030 BKN140 09/05 Q1007 RMK 1CU030 7AC140 A2974
RJCC 122030Z 35027G38KT 9999 -SHRA FEW040 BKN140 08/05 Q1007 RMK 1CU040 7AC140 A2974
RJCC 122004Z 35024G34KT 9999 -SHRA FEW030 SCT100 BKN130 08/05 Q1007 RMK 1CU030 4AC100 7AC130 A2975
RJCC 122000Z 35025KT 9999 -SHRA FEW030 BKN100 08/05 Q1007
RJCC 121930Z 34023G33KT 9999 -SHRA FEW030 BKN100 BKN120 08/05 Q1008 RMK 1CU030 5AC100 7AC120 A2977